Terminal Aerodrome Forecast
Issued by NWS

Home | Current Version | Previous Version | Text Only | Print | Product List | Glossary On
Versions: 1 2 3 4 5 6 7 8 9 10 11 12 13 14 15 16 17
000
FTAK31 PAFA 182320
TAFATA
TAF
PATA 182320Z 1900/1924 17008KT P6SM SCT030 BKN060
     FM190600 VRB03KT P6SM VCSH SCT025 OVC050
     FM191600 29002KT 4SM -SHRA BR BKN007 OVC015
     FM191900 27003KT P6SM -SHRA BKN015 OVC025=

USA.gov is the U.S. government's official web portal to all federal, state and local government web resources and services.